Vindmåler ude af drift - anemometer is down due to maintenance


Webcam more information My webcam


Lyn radar more information blitzortung!


Regn radar more information rain snow radar


Du finder også vores vejrinformationer på:

UK Metoffice

European Weather Network

WeatherCloud

Weather Underground

AWEKAS

Citizen Weather Observer Program (CWOP)



No particular awareness of the weather is required.    There are no Weather-warnings

Lokal METAR Rapport

   
EBAW - Antwerp
Opdateret: 23-05-2019 05:20
Klart  
Klart  
   Vind: SØ 1 m/s
Vind: SØ 1 m/s
Temperatur: 9°C
Dugpunkt: 7°C
Luftfugtighed: 87%
Barometer: 1019 hPa
Sigtbarhed: mere end 10 km
Sky detaljer: Klart ft
EBAW 230320Z AUTO 13002KT CAVOK 09/07 Q1019
EBLG - Liège
Opdateret: 23-05-2019 05:20
Klart  
Klart  
   Vind: SØ 4.1 m/s
Vind: SØ 4.1 m/s
Temperatur: 10°C
Kuldeindeks: 8°C
Dugpunkt: 6°C
Luftfugtighed: 76%
Barometer: 1019 hPa
Sigtbarhed: mere end 10 km
Sky detaljer: Klart ft
EBLG 230320Z 14008KT CAVOK 10/06 Q1019 NOSIG
EBCV - Mons/Bergen
Opdateret: 23-05-2019 05:25
Klart  
Klart  
   Vind: varierer 0.5 m/s
Vind: varierer 0.5 m/s
Temperatur: 9°C
Dugpunkt: 5°C
Luftfugtighed: 76%
Barometer: 1019 hPa
Skyet: Clear
Sigtbarhed: mere end 10 km
Sky detaljer: Klart ft
EBCV 230325Z AUTO VRB01KT 9999 NCD 09/05 Q1019 BLU
EHBK - Maastricht
Opdateret: 23-05-2019 05:25
Delvis skyet  
Delvis skyet  
   Vind: Syd 1.5 m/s
Vind: Syd 1.5 m/s
Temperatur: 7°C
Kuldeindeks: 6°C
Dugpunkt: 5°C
Luftfugtighed: 87%
Barometer: 1019 hPa
Skyet: Partly Cloudy
Sigtbarhed: mere end 10 km
Sky detaljer: Delvis skyet ft
EHBK 230325Z AUTO 17003KT 9999 NSC 07/05 Q1019
ELLX - Luxemburg
Opdateret: 23-05-2019 05:20
Klart  
Klart  
   Vind: varierer 1 m/s
Vind: varierer 1 m/s
Temperatur: 10°C
Dugpunkt: 5°C
Luftfugtighed: 71%
Barometer: 1020 hPa
Sigtbarhed: mere end 10 km
Sky detaljer: Klart ft
ELLX 230320Z VRB02KT CAVOK 10/05 Q1020 NOSIG
EBOS - Oostende
Opdateret: 23-05-2019 05:20
Klart  
Klart  
   Vind: SV 2.1 m/s
Vind: SV 2.1 m/s
Temperatur: 6°C
Kuldeindeks: 4°C
Dugpunkt: 4°C
Luftfugtighed: 87%
Barometer: 1018 hPa
Sigtbarhed: mere end 10 km
Sky detaljer: Klart ft
EBOS 230320Z 22004KT CAVOK 06/04 Q1018 NOSIG

Script udviklet af  Saratoga-weather.org Tilpasset til denne template af  Weerstation Leuven

Udstyr som vi anvender:

Vejrstation
Davis VP2

Vejrprogram
Meteobridge

Vejrserver
Meteobridge Pro

Hjemmeside host
Unoeuro

Davis VP2

Meteobridge

Meteobridge Pro

Unoeuro